sensor_id;sensor_type;location;lat;lon;timestamp;P1;durP1;ratioP1;P2;durP2;ratioP2
59828;SDS011;45708;51.848;107.620;2022-09-13T00:00:36;5.88;;;1.30;;
59828;SDS011;45708;51.848;107.620;2022-09-13T00:05:39;4.75;;;2.53;;
59828;SDS011;45708;51.848;107.620;2022-09-13T00:10:42;8.95;;;4.50;;
59828;SDS011;45708;51.848;107.620;2022-09-13T00:15:44;1.77;;;0.95;;
59828;SDS011;45708;51.848;107.620;2022-09-13T00:20:46;1.13;;;0.90;;
59828;SDS011;45708;51.848;107.620;2022-09-13T00:25:47;1.73;;;0.80;;
59828;SDS011;45708;51.848;107.620;2022-09-13T00:30:48;2.08;;;1.23;;
59828;SDS011;45708;51.848;107.620;2022-09-13T00:35:49;3.05;;;2.78;;
59828;SDS011;45708;51.848;107.620;2022-09-13T00:40:50;0.93;;;0.70;;
59828;SDS011;45708;51.848;107.620;2022-09-13T00:45:51;2.88;;;1.17;;
59828;SDS011;45708;51.848;107.620;2022-09-13T00:50:52;5.38;;;1.30;;
59828;SDS011;45708;51.848;107.620;2022-09-13T00:55:56;1.98;;;1.70;;
59828;SDS011;45708;51.848;107.620;2022-09-13T01:01:08;6.40;;;1.35;;
59828;SDS011;45708;51.848;107.620;2022-09-13T01:06:13;1.00;;;0.90;;
59828;SDS011;45708;51.848;107.620;2022-09-13T01:11:32;1.25;;;1.00;;
59828;SDS011;45708;51.848;107.620;2022-09-13T01:16:43;2.28;;;1.20;;
59828;SDS011;45708;51.848;107.620;2022-09-13T01:22:01;0.95;;;0.88;;
59828;SDS011;45708;51.848;107.620;2022-09-13T01:27:27;2.78;;;1.55;;
59828;SDS011;45708;51.848;107.620;2022-09-13T01:32:33;5.57;;;1.30;;
59828;SDS011;45708;51.848;107.620;2022-09-13T01:37:53;11.13;;;3.42;;
59828;SDS011;45708;51.848;107.620;2022-09-13T01:42:59;6.00;;;2.58;;
59828;SDS011;45708;51.848;107.620;2022-09-13T01:53:57;2.25;;;1.20;;
59828;SDS011;45708;51.848;107.620;2022-09-13T01:59:03;2.35;;;1.70;;
59828;SDS011;45708;51.848;107.620;2022-09-13T02:04:14;2.63;;;1.60;;
59828;SDS011;45708;51.848;107.620;2022-09-13T02:09:21;2.95;;;1.60;;
59828;SDS011;45708;51.848;107.620;2022-09-13T02:14:59;4.55;;;2.35;;
59828;SDS011;45708;51.848;107.620;2022-09-13T02:20:00;3.05;;;1.55;;
59828;SDS011;45708;51.848;107.620;2022-09-13T02:25:05;2.35;;;1.67;;
59828;SDS011;45708;51.848;107.620;2022-09-13T02:30:11;2.47;;;1.77;;
59828;SDS011;45708;51.848;107.620;2022-09-13T02:35:24;1.75;;;1.10;;
59828;SDS011;45708;51.848;107.620;2022-09-13T02:40:38;5.78;;;3.00;;
59828;SDS011;45708;51.848;107.620;2022-09-13T02:45:50;7.45;;;3.83;;
59828;SDS011;45708;51.848;107.620;2022-09-13T02:50:59;4.03;;;3.00;;
59828;SDS011;45708;51.848;107.620;2022-09-13T02:56:29;7.53;;;3.15;;
59828;SDS011;45708;51.848;107.620;2022-09-13T03:01:33;2.20;;;1.30;;
59828;SDS011;45708;51.848;107.620;2022-09-13T03:06:38;2.10;;;0.98;;
59828;SDS011;45708;51.848;107.620;2022-09-13T03:11:55;2.22;;;0.90;;
59828;SDS011;45708;51.848;107.620;2022-09-13T03:43:20;2.08;;;1.40;;
59828;SDS011;45708;51.848;107.620;2022-09-13T03:48:24;1.83;;;1.20;;
59828;SDS011;45708;51.848;107.620;2022-09-13T03:53:26;1.90;;;1.00;;
59828;SDS011;45708;51.848;107.620;2022-09-13T03:58:30;4.00;;;1.55;;
59828;SDS011;45708;51.848;107.620;2022-09-13T04:03:30;0.90;;;0.90;;
59828;SDS011;45708;51.848;107.620;2022-09-13T04:08:31;2.15;;;0.98;;
59828;SDS011;45708;51.848;107.620;2022-09-13T04:13:32;1.48;;;0.90;;
59828;SDS011;45708;51.848;107.620;2022-09-13T04:18:33;1.33;;;0.90;;
59828;SDS011;45708;51.848;107.620;2022-09-13T04:23:34;1.15;;;1.05;;
59828;SDS011;45708;51.848;107.620;2022-09-13T04:28:35;2.17;;;1.10;;
59828;SDS011;45708;51.848;107.620;2022-09-13T04:33:36;2.90;;;0.90;;
59828;SDS011;45708;51.848;107.620;2022-09-13T04:38:37;1.90;;;1.20;;
59828;SDS011;45708;51.848;107.620;2022-09-13T04:43:39;1.85;;;1.20;;
59828;SDS011;45708;51.848;107.620;2022-09-13T04:48:39;4.15;;;1.42;;
59828;SDS011;45708;51.848;107.620;2022-09-13T04:53:40;4.15;;;1.30;;
59828;SDS011;45708;51.848;107.620;2022-09-13T04:58:41;3.40;;;1.27;;
59828;SDS011;45708;51.848;107.620;2022-09-13T05:03:42;1.50;;;1.00;;
59828;SDS011;45708;51.848;107.620;2022-09-13T05:08:43;2.25;;;1.50;;
59828;SDS011;45708;51.848;107.620;2022-09-13T05:13:51;1.10;;;1.10;;
59828;SDS011;45708;51.848;107.620;2022-09-13T05:18:54;1.00;;;0.90;;
59828;SDS011;45708;51.848;107.620;2022-09-13T05:23:56;5.38;;;1.10;;
59828;SDS011;45708;51.848;107.620;2022-09-13T05:28:58;1.85;;;0.85;;
59828;SDS011;45708;51.848;107.620;2022-09-13T05:34:03;1.42;;;1.15;;
59828;SDS011;45708;51.848;107.620;2022-09-13T05:39:07;3.80;;;1.92;;
59828;SDS011;45708;51.848;107.620;2022-09-13T05:44:12;2.60;;;1.30;;
59828;SDS011;45708;51.848;107.620;2022-09-13T05:49:13;3.67;;;1.40;;
59828;SDS011;45708;51.848;107.620;2022-09-13T05:54:14;4.25;;;1.98;;
59828;SDS011;45708;51.848;107.620;2022-09-13T05:59:15;5.18;;;2.63;;
59828;SDS011;45708;51.848;107.620;2022-09-13T06:04:16;2.55;;;1.40;;
59828;SDS011;45708;51.848;107.620;2022-09-13T06:09:17;2.72;;;1.58;;
59828;SDS011;45708;51.848;107.620;2022-09-13T06:14:17;2.47;;;1.40;;
59828;SDS011;45708;51.848;107.620;2022-09-13T06:19:18;2.50;;;1.90;;
59828;SDS011;45708;51.848;107.620;2022-09-13T06:24:19;1.40;;;1.30;;
59828;SDS011;45708;51.848;107.620;2022-09-13T06:29:20;1.65;;;1.30;;
59828;SDS011;45708;51.848;107.620;2022-09-13T06:34:21;2.80;;;1.40;;
59828;SDS011;45708;51.848;107.620;2022-09-13T06:39:22;2.38;;;1.65;;
59828;SDS011;45708;51.848;107.620;2022-09-13T06:44:23;2.15;;;1.90;;
59828;SDS011;45708;51.848;107.620;2022-09-13T06:49:23;2.13;;;1.17;;
59828;SDS011;45708;51.848;107.620;2022-09-13T06:54:24;5.50;;;1.80;;
59828;SDS011;45708;51.848;107.620;2022-09-13T06:59:25;2.25;;;1.45;;
59828;SDS011;45708;51.848;107.620;2022-09-13T07:04:26;8.00;;;1.92;;
59828;SDS011;45708;51.848;107.620;2022-09-13T07:09:27;3.75;;;1.65;;
59828;SDS011;45708;51.848;107.620;2022-09-13T07:14:28;1.55;;;1.45;;
59828;SDS011;45708;51.848;107.620;2022-09-13T07:19:28;2.35;;;1.30;;
59828;SDS011;45708;51.848;107.620;2022-09-13T07:24:29;1.48;;;1.38;;
59828;SDS011;45708;51.848;107.620;2022-09-13T07:29:30;4.03;;;1.90;;
59828;SDS011;45708;51.848;107.620;2022-09-13T07:34:31;5.07;;;2.53;;
59828;SDS011;45708;51.848;107.620;2022-09-13T07:39:32;7.00;;;2.60;;
59828;SDS011;45708;51.848;107.620;2022-09-13T07:44:33;2.60;;;2.38;;
59828;SDS011;45708;51.848;107.620;2022-09-13T07:49:33;5.60;;;2.78;;
59828;SDS011;45708;51.848;107.620;2022-09-13T07:54:34;2.40;;;1.40;;
59828;SDS011;45708;51.848;107.620;2022-09-13T07:59:35;2.35;;;1.80;;
59828;SDS011;45708;51.848;107.620;2022-09-13T08:04:36;2.38;;;1.52;;
59828;SDS011;45708;51.848;107.620;2022-09-13T08:09:38;2.00;;;1.80;;
59828;SDS011;45708;51.848;107.620;2022-09-13T08:14:39;7.15;;;5.15;;
59828;SDS011;45708;51.848;107.620;2022-09-13T08:19:40;3.00;;;2.28;;
59828;SDS011;45708;51.848;107.620;2022-09-13T08:24:41;2.53;;;1.70;;
59828;SDS011;45708;51.848;107.620;2022-09-13T08:29:43;2.78;;;1.67;;
59828;SDS011;45708;51.848;107.620;2022-09-13T08:34:44;4.55;;;2.20;;
59828;SDS011;45708;51.848;107.620;2022-09-13T08:39:44;9.02;;;4.18;;
59828;SDS011;45708;51.848;107.620;2022-09-13T08:44:49;7.35;;;5.65;;
59828;SDS011;45708;51.848;107.620;2022-09-13T08:50:39;2.90;;;2.50;;
59828;SDS011;45708;51.848;107.620;2022-09-13T09:00:37;11.85;;;7.47;;
59828;SDS011;45708;51.848;107.620;2022-09-13T09:05:47;9.13;;;4.80;;
59828;SDS011;45708;51.848;107.620;2022-09-13T09:10:50;4.47;;;3.28;;
59828;SDS011;45708;51.848;107.620;2022-09-13T09:15:55;6.20;;;2.92;;
59828;SDS011;45708;51.848;107.620;2022-09-13T09:21:09;4.00;;;2.33;;
59828;SDS011;45708;51.848;107.620;2022-09-13T09:26:24;6.35;;;2.70;;
59828;SDS011;45708;51.848;107.620;2022-09-13T09:37:10;6.13;;;2.80;;
59828;SDS011;45708;51.848;107.620;2022-09-13T09:42:25;3.00;;;2.20;;
59828;SDS011;45708;51.848;107.620;2022-09-13T09:47:30;4.53;;;3.55;;
59828;SDS011;45708;51.848;107.620;2022-09-13T09:57:49;5.68;;;3.08;;
59828;SDS011;45708;51.848;107.620;2022-09-13T10:02:58;3.28;;;2.63;;
59828;SDS011;45708;51.848;107.620;2022-09-13T10:08:03;4.50;;;2.30;;
59828;SDS011;45708;51.848;107.620;2022-09-13T10:13:06;3.15;;;2.70;;
59828;SDS011;45708;51.848;107.620;2022-09-13T10:18:16;8.40;;;2.88;;
59828;SDS011;45708;51.848;107.620;2022-09-13T10:23:18;6.72;;;2.83;;
59828;SDS011;45708;51.848;107.620;2022-09-13T10:28:20;10.23;;;5.50;;
59828;SDS011;45708;51.848;107.620;2022-09-13T10:33:23;9.10;;;4.75;;
59828;SDS011;45708;51.848;107.620;2022-09-13T10:38:31;11.43;;;5.18;;
59828;SDS011;45708;51.848;107.620;2022-09-13T10:43:35;9.43;;;4.83;;
59828;SDS011;45708;51.848;107.620;2022-09-13T10:48:44;11.05;;;5.35;;
59828;SDS011;45708;51.848;107.620;2022-09-13T10:53:47;5.05;;;3.05;;
59828;SDS011;45708;51.848;107.620;2022-09-13T10:58:48;6.93;;;2.97;;
59828;SDS011;45708;51.848;107.620;2022-09-13T11:03:54;5.70;;;3.50;;
59828;SDS011;45708;51.848;107.620;2022-09-13T11:20:00;9.98;;;5.68;;
59828;SDS011;45708;51.848;107.620;2022-09-13T11:30:19;18.42;;;7.53;;
59828;SDS011;45708;51.848;107.620;2022-09-13T11:40:48;13.45;;;6.30;;
59828;SDS011;45708;51.848;107.620;2022-09-13T11:56:39;7.13;;;4.13;;
59828;SDS011;45708;51.848;107.620;2022-09-13T12:01:44;5.70;;;3.90;;
59828;SDS011;45708;51.848;107.620;2022-09-13T12:06:59;5.22;;;3.22;;
59828;SDS011;45708;51.848;107.620;2022-09-13T12:17:09;9.88;;;4.05;;
59828;SDS011;45708;51.848;107.620;2022-09-13T12:22:25;8.20;;;3.08;;
59828;SDS011;45708;51.848;107.620;2022-09-13T12:32:45;5.78;;;2.40;;
59828;SDS011;45708;51.848;107.620;2022-09-13T12:38:09;3.42;;;1.95;;
59828;SDS011;45708;51.848;107.620;2022-09-13T12:49:03;2.97;;;1.90;;
59828;SDS011;45708;51.848;107.620;2022-09-13T12:54:16;3.58;;;2.08;;
59828;SDS011;45708;51.848;107.620;2022-09-13T13:05:06;4.72;;;1.92;;
59828;SDS011;45708;51.848;107.620;2022-09-13T13:10:28;2.35;;;2.00;;
59828;SDS011;45708;51.848;107.620;2022-09-13T13:36:25;6.38;;;3.10;;
59828;SDS011;45708;51.848;107.620;2022-09-13T13:46:32;12.82;;;6.15;;
59828;SDS011;45708;51.848;107.620;2022-09-13T13:51:33;7.97;;;5.53;;
59828;SDS011;45708;51.848;107.620;2022-09-13T13:56:45;7.63;;;4.13;;
59828;SDS011;45708;51.848;107.620;2022-09-13T14:01:49;3.88;;;2.10;;
59828;SDS011;45708;51.848;107.620;2022-09-13T14:17:32;3.05;;;1.70;;
59828;SDS011;45708;51.848;107.620;2022-09-13T14:22:48;3.55;;;2.40;;
59828;SDS011;45708;51.848;107.620;2022-09-13T14:27:49;2.65;;;1.70;;
59828;SDS011;45708;51.848;107.620;2022-09-13T14:32:56;2.05;;;1.60;;
59828;SDS011;45708;51.848;107.620;2022-09-13T14:43:25;4.82;;;3.35;;
59828;SDS011;45708;51.848;107.620;2022-09-13T14:48:31;2.80;;;2.03;;
59828;SDS011;45708;51.848;107.620;2022-09-13T14:53:39;4.03;;;2.50;;
59828;SDS011;45708;51.848;107.620;2022-09-13T14:58:47;12.20;;;4.07;;
59828;SDS011;45708;51.848;107.620;2022-09-13T15:03:51;13.25;;;3.53;;
59828;SDS011;45708;51.848;107.620;2022-09-13T15:08:58;7.35;;;3.95;;
59828;SDS011;45708;51.848;107.620;2022-09-13T15:14:21;11.23;;;4.43;;
59828;SDS011;45708;51.848;107.620;2022-09-13T15:19:51;6.30;;;3.30;;
59828;SDS011;45708;51.848;107.620;2022-09-13T15:25:03;7.07;;;3.38;;
59828;SDS011;45708;51.848;107.620;2022-09-13T15:30:05;9.68;;;4.13;;
59828;SDS011;45708;51.848;107.620;2022-09-13T15:35:22;12.30;;;6.53;;
59828;SDS011;45708;51.848;107.620;2022-09-13T15:40:23;12.98;;;4.97;;
59828;SDS011;45708;51.848;107.620;2022-09-13T15:45:26;12.00;;;4.93;;
59828;SDS011;45708;51.848;107.620;2022-09-13T15:50:28;10.90;;;5.25;;
59828;SDS011;45708;51.848;107.620;2022-09-13T15:55:30;14.88;;;7.10;;
59828;SDS011;45708;51.848;107.620;2022-09-13T16:00:30;11.52;;;6.45;;
59828;SDS011;45708;51.848;107.620;2022-09-13T16:05:31;13.80;;;6.95;;
59828;SDS011;45708;51.848;107.620;2022-09-13T16:10:32;17.10;;;9.10;;
59828;SDS011;45708;51.848;107.620;2022-09-13T16:15:33;16.73;;;8.35;;
59828;SDS011;45708;51.848;107.620;2022-09-13T16:20:34;20.95;;;10.95;;
59828;SDS011;45708;51.848;107.620;2022-09-13T16:25:35;11.38;;;6.53;;
59828;SDS011;45708;51.848;107.620;2022-09-13T16:30:36;12.70;;;7.55;;
59828;SDS011;45708;51.848;107.620;2022-09-13T16:35:37;13.40;;;8.32;;
59828;SDS011;45708;51.848;107.620;2022-09-13T16:40:38;17.85;;;8.50;;
59828;SDS011;45708;51.848;107.620;2022-09-13T16:45:43;17.15;;;8.52;;
59828;SDS011;45708;51.848;107.620;2022-09-13T16:50:43;18.73;;;9.60;;
59828;SDS011;45708;51.848;107.620;2022-09-13T16:55:46;18.75;;;9.20;;
59828;SDS011;45708;51.848;107.620;2022-09-13T17:00:46;18.92;;;8.90;;
59828;SDS011;45708;51.848;107.620;2022-09-13T17:05:59;14.05;;;7.63;;
59828;SDS011;45708;51.848;107.620;2022-09-13T17:11:08;12.20;;;7.20;;
59828;SDS011;45708;51.848;107.620;2022-09-13T17:16:22;15.10;;;7.47;;
59828;SDS011;45708;51.848;107.620;2022-09-13T17:21:26;10.43;;;6.55;;
59828;SDS011;45708;51.848;107.620;2022-09-13T17:26:28;9.75;;;6.50;;
59828;SDS011;45708;51.848;107.620;2022-09-13T17:31:29;11.43;;;6.68;;
59828;SDS011;45708;51.848;107.620;2022-09-13T17:36:30;9.65;;;6.10;;
59828;SDS011;45708;51.848;107.620;2022-09-13T17:41:31;9.07;;;5.97;;
59828;SDS011;45708;51.848;107.620;2022-09-13T17:46:32;11.40;;;7.13;;
59828;SDS011;45708;51.848;107.620;2022-09-13T17:51:33;12.80;;;5.43;;
59828;SDS011;45708;51.848;107.620;2022-09-13T17:56:41;10.07;;;5.68;;
59828;SDS011;45708;51.848;107.620;2022-09-13T18:01:43;10.63;;;5.82;;
59828;SDS011;45708;51.848;107.620;2022-09-13T18:06:46;8.32;;;5.57;;
59828;SDS011;45708;51.848;107.620;2022-09-13T18:11:48;8.32;;;6.38;;
59828;SDS011;45708;51.848;107.620;2022-09-13T18:16:49;16.27;;;8.25;;
59828;SDS011;45708;51.848;107.620;2022-09-13T18:21:49;13.77;;;7.60;;
59828;SDS011;45708;51.848;107.620;2022-09-13T18:26:50;15.73;;;7.93;;
59828;SDS011;45708;51.848;107.620;2022-09-13T18:31:51;16.13;;;9.43;;
59828;SDS011;45708;51.848;107.620;2022-09-13T18:36:52;20.45;;;9.77;;
59828;SDS011;45708;51.848;107.620;2022-09-13T18:41:53;16.85;;;9.90;;
59828;SDS011;45708;51.848;107.620;2022-09-13T18:46:54;21.90;;;10.65;;
59828;SDS011;45708;51.848;107.620;2022-09-13T18:51:54;20.02;;;12.13;;
59828;SDS011;45708;51.848;107.620;2022-09-13T18:56:55;21.60;;;12.15;;
59828;SDS011;45708;51.848;107.620;2022-09-13T19:01:56;42.58;;;16.65;;
59828;SDS011;45708;51.848;107.620;2022-09-13T19:06:57;26.42;;;12.93;;
59828;SDS011;45708;51.848;107.620;2022-09-13T19:11:58;30.33;;;14.35;;
59828;SDS011;45708;51.848;107.620;2022-09-13T19:16:59;24.80;;;11.88;;
59828;SDS011;45708;51.848;107.620;2022-09-13T19:22:00;21.70;;;11.30;;
59828;SDS011;45708;51.848;107.620;2022-09-13T19:27:00;29.77;;;14.07;;
59828;SDS011;45708;51.848;107.620;2022-09-13T19:32:01;34.97;;;17.20;;
59828;SDS011;45708;51.848;107.620;2022-09-13T19:37:02;37.42;;;17.38;;
59828;SDS011;45708;51.848;107.620;2022-09-13T19:42:03;31.48;;;14.55;;
59828;SDS011;45708;51.848;107.620;2022-09-13T19:47:04;15.90;;;9.27;;
59828;SDS011;45708;51.848;107.620;2022-09-13T19:52:07;16.55;;;8.30;;
59828;SDS011;45708;51.848;107.620;2022-09-13T19:57:08;16.83;;;8.18;;
59828;SDS011;45708;51.848;107.620;2022-09-13T20:02:09;15.93;;;7.90;;
59828;SDS011;45708;51.848;107.620;2022-09-13T20:07:10;16.17;;;8.50;;
59828;SDS011;45708;51.848;107.620;2022-09-13T20:12:11;18.10;;;8.93;;
59828;SDS011;45708;51.848;107.620;2022-09-13T20:17:12;20.70;;;9.40;;
59828;SDS011;45708;51.848;107.620;2022-09-13T20:22:13;15.63;;;8.70;;
59828;SDS011;45708;51.848;107.620;2022-09-13T20:27:14;17.00;;;9.43;;
59828;SDS011;45708;51.848;107.620;2022-09-13T20:32:15;12.70;;;8.27;;
59828;SDS011;45708;51.848;107.620;2022-09-13T20:37:16;20.23;;;9.60;;
59828;SDS011;45708;51.848;107.620;2022-09-13T20:42:17;18.75;;;9.85;;
59828;SDS011;45708;51.848;107.620;2022-09-13T20:47:18;16.30;;;9.48;;
59828;SDS011;45708;51.848;107.620;2022-09-13T20:52:19;14.48;;;8.95;;
59828;SDS011;45708;51.848;107.620;2022-09-13T20:57:19;15.57;;;9.50;;
59828;SDS011;45708;51.848;107.620;2022-09-13T21:02:20;19.08;;;10.02;;
59828;SDS011;45708;51.848;107.620;2022-09-13T21:07:21;15.32;;;9.95;;
59828;SDS011;45708;51.848;107.620;2022-09-13T21:12:23;16.60;;;8.80;;
59828;SDS011;45708;51.848;107.620;2022-09-13T21:17:24;17.00;;;8.77;;
59828;SDS011;45708;51.848;107.620;2022-09-13T21:22:25;12.68;;;8.43;;
59828;SDS011;45708;51.848;107.620;2022-09-13T21:27:26;15.10;;;8.82;;
59828;SDS011;45708;51.848;107.620;2022-09-13T21:32:27;17.60;;;9.68;;
59828;SDS011;45708;51.848;107.620;2022-09-13T21:37:28;19.27;;;8.88;;
59828;SDS011;45708;51.848;107.620;2022-09-13T21:42:29;18.63;;;8.70;;
59828;SDS011;45708;51.848;107.620;2022-09-13T21:47:30;15.75;;;9.13;;
59828;SDS011;45708;51.848;107.620;2022-09-13T21:52:30;19.65;;;9.00;;
59828;SDS011;45708;51.848;107.620;2022-09-13T21:57:31;22.30;;;10.68;;
59828;SDS011;45708;51.848;107.620;2022-09-13T22:02:32;19.63;;;10.98;;
59828;SDS011;45708;51.848;107.620;2022-09-13T22:07:33;18.60;;;9.98;;
59828;SDS011;45708;51.848;107.620;2022-09-13T22:12:34;20.10;;;10.13;;
59828;SDS011;45708;51.848;107.620;2022-09-13T22:17:35;16.48;;;9.80;;
59828;SDS011;45708;51.848;107.620;2022-09-13T22:22:35;14.15;;;8.60;;
59828;SDS011;45708;51.848;107.620;2022-09-13T22:27:36;16.55;;;8.98;;
59828;SDS011;45708;51.848;107.620;2022-09-13T22:32:37;15.02;;;8.00;;
59828;SDS011;45708;51.848;107.620;2022-09-13T22:37:38;14.02;;;8.77;;
59828;SDS011;45708;51.848;107.620;2022-09-13T22:42:39;20.25;;;10.98;;
59828;SDS011;45708;51.848;107.620;2022-09-13T22:47:39;24.65;;;13.80;;
59828;SDS011;45708;51.848;107.620;2022-09-13T22:52:40;27.23;;;13.38;;
59828;SDS011;45708;51.848;107.620;2022-09-13T22:57:41;20.73;;;11.10;;
59828;SDS011;45708;51.848;107.620;2022-09-13T23:02:42;21.52;;;11.30;;
59828;SDS011;45708;51.848;107.620;2022-09-13T23:07:43;13.52;;;7.00;;
59828;SDS011;45708;51.848;107.620;2022-09-13T23:12:44;8.27;;;4.95;;
59828;SDS011;45708;51.848;107.620;2022-09-13T23:17:45;9.63;;;5.97;;
59828;SDS011;45708;51.848;107.620;2022-09-13T23:22:46;5.07;;;3.80;;
59828;SDS011;45708;51.848;107.620;2022-09-13T23:27:47;7.20;;;3.47;;
59828;SDS011;45708;51.848;107.620;2022-09-13T23:32:48;7.40;;;4.35;;
59828;SDS011;45708;51.848;107.620;2022-09-13T23:37:49;22.92;;;10.18;;
59828;SDS011;45708;51.848;107.620;2022-09-13T23:42:50;31.17;;;13.57;;
59828;SDS011;45708;51.848;107.620;2022-09-13T23:47:51;38.22;;;21.85;;
59828;SDS011;45708;51.848;107.620;2022-09-13T23:52:52;27.40;;;14.15;;
59828;SDS011;45708;51.848;107.620;2022-09-13T23:57:53;20.48;;;11.65;;
